Time;durP1;ratioP1;P1;durP2;ratioP2;P2;SDS_P1;SDS_P2;PMS_P1;PMS_P2;Temp;Humidity;BMP_temperature;BMP_pressure;BME280_temperature;BME280_humidity;BME280_pressure;Samples;Min_cycle;Max_cycle;Signal;HPM_P1;HPM_P2
2020/12/31 00:00:35;;;;;;;4.90;2.83;;;;;;;1.37;82.73;97833.59;5012998;28;20025;-63
2020/12/31 00:03:00;;;;;;;6.03;3.13;;;;;;;1.33;83.20;97829.38;5013782;28;20037;-63
2020/12/31 00:05:25;;;;;;;7.10;3.57;;;;;;;1.33;83.26;97830.22;5008481;28;20022;-63
2020/12/31 00:07:51;;;;;;;6.27;3.17;;;;;;;1.33;82.83;97817.59;4993069;28;20171;-63
2020/12/31 00:10:17;;;;;;;6.70;2.93;;;;;;;1.26;83.46;97815.03;4993482;28;20034;-63
2020/12/31 00:12:42;;;;;;;2.70;1.93;;;;;;;1.25;83.22;97820.91;4994471;28;20031;-62
2020/12/31 00:15:08;;;;;;;2.73;2.00;;;;;;;1.29;82.99;97825.13;4992539;28;20027;-63
2020/12/31 00:17:33;;;;;;;2.90;1.97;;;;;;;1.33;82.88;97824.31;4994638;28;20026;-62
2020/12/31 00:19:59;;;;;;;2.60;2.10;;;;;;;1.32;83.04;97827.66;5000419;28;20110;-62
2020/12/31 00:22:24;;;;;;;2.63;2.30;;;;;;;1.29;83.47;97825.13;4995351;28;20037;-62
2020/12/31 00:24:50;;;;;;;1.90;1.63;;;;;;;1.26;82.66;97831.03;4993755;28;20026;-62
2020/12/31 00:27:15;;;;;;;2.43;1.90;;;;;;;1.19;82.97;97841.91;5003463;28;20029;-62
2020/12/31 00:29:41;;;;;;;2.37;1.80;;;;;;;1.08;83.29;97837.66;5012928;28;20041;-63
2020/12/31 00:32:06;;;;;;;2.27;2.07;;;;;;;0.99;83.85;97837.59;5006772;28;20049;-62
2020/12/31 00:34:32;;;;;;;2.27;1.93;;;;;;;0.92;84.15;97849.34;4993026;28;20080;-62
2020/12/31 00:36:57;;;;;;;4.53;2.27;;;;;;;0.83;84.50;97850.13;4994107;28;20370;-62
2020/12/31 00:39:23;;;;;;;2.90;2.17;;;;;;;0.75;84.49;97848.41;5013699;28;20439;-63
2020/12/31 00:41:48;;;;;;;3.90;2.77;;;;;;;0.68;85.10;97855.06;5011504;28;20030;-62
2020/12/31 00:44:14;;;;;;;7.97;4.33;;;;;;;0.62;85.70;97859.22;5013716;28;20049;-62
2020/12/31 00:46:40;;;;;;;4.57;3.30;;;;;;;0.53;85.79;97856.63;5012862;28;20018;-62
2020/12/31 00:49:05;;;;;;;6.60;3.77;;;;;;;0.47;85.60;97874.25;4994855;28;20030;-62
2020/12/31 00:51:30;;;;;;;7.23;4.20;;;;;;;0.40;85.60;97874.19;5012629;28;20049;-62
2020/12/31 00:53:56;;;;;;;4.43;3.27;;;;;;;0.31;86.32;97868.19;4996505;28;20499;-62
2020/12/31 00:56:21;;;;;;;4.67;3.03;;;;;;;0.27;86.29;97887.50;4993147;28;20055;-61
2020/12/31 00:58:47;;;;;;;5.10;3.23;;;;;;;0.22;86.40;97880.72;4992189;28;20035;-62
2020/12/31 01:01:12;;;;;;;4.87;2.90;;;;;;;0.17;86.55;97887.41;4993657;28;20023;-62
2020/12/31 01:03:37;;;;;;;5.20;3.77;;;;;;;0.17;87.29;97889.94;4991450;28;20041;-62
2020/12/31 01:06:03;;;;;;;8.97;2.83;;;;;;;0.10;87.82;97889.00;4992402;28;20018;-62
2020/12/31 01:08:28;;;;;;;5.80;3.40;;;;;;;0.05;87.42;97884.75;4998063;28;20079;-61
2020/12/31 01:10:54;;;;;;;8.97;5.50;;;;;;;-0.01;87.66;97888.06;5013261;28;20045;-62
2020/12/31 01:13:19;;;;;;;8.87;8.07;;;;;;;-0.04;87.52;97885.50;5007890;28;20037;-61
2020/12/31 01:15:45;;;;;;;11.37;8.90;;;;;;;-0.04;88.30;97890.53;4993638;28;20401;-62
2020/12/31 01:18:10;;;;;;;8.50;7.27;;;;;;;-0.07;88.38;97895.53;4992049;28;20030;-62
2020/12/31 01:20:38;;;;;;;8.20;5.83;;;;;;;-0.05;88.51;97897.28;5000192;28;20041;-62
2020/12/31 01:23:07;;;;;;;4.87;4.20;;;;;;;-0.02;88.39;97899.81;4996061;28;20019;-62
2020/12/31 01:25:33;;;;;;;6.07;3.70;;;;;;;0.08;88.69;97910.00;5003037;28;20481;-62
2020/12/31 01:27:59;;;;;;;5.47;3.00;;;;;;;0.08;88.58;97908.31;5011964;28;20022;-61
2020/12/31 01:30:24;;;;;;;4.60;3.00;;;;;;;0.12;88.22;97916.75;5008077;28;20399;-62
2020/12/31 01:32:50;;;;;;;3.33;2.80;;;;;;;0.10;88.46;97913.34;5012694;28;20037;-62
2020/12/31 01:35:16;;;;;;;4.00;2.80;;;;;;;0.08;88.38;97918.41;5006349;28;20075;-62
2020/12/31 01:37:41;;;;;;;4.97;3.30;;;;;;;0.06;88.36;97919.19;4993248;28;20030;-62
2020/12/31 01:40:07;;;;;;;7.80;3.63;;;;;;;0.06;88.05;97919.19;4994531;28;20063;-62
2020/12/31 01:42:32;;;;;;;6.13;3.97;;;;;;;0.06;88.26;97921.72;5012323;28;20021;-62
2020/12/31 01:44:58;;;;;;;7.53;5.00;;;;;;;0.07;88.15;97923.41;5010910;28;20345;-62
2020/12/31 01:47:23;;;;;;;7.10;3.90;;;;;;;0.18;88.18;97926.88;5012788;28;20034;-61
2020/12/31 01:49:50;;;;;;;5.13;3.80;;;;;;;0.24;87.50;97932.00;5011421;28;20078;-61
2020/12/31 01:52:17;;;;;;;4.67;3.43;;;;;;;0.23;87.62;97926.09;4993097;28;20030;-62
2020/12/31 01:54:49;;;;;;;4.30;2.97;;;;;;;0.23;87.83;97931.16;4991829;28;20385;-62
2020/12/31 01:57:14;;;;;;;5.60;3.13;;;;;;;0.16;87.92;97939.47;5010067;28;20026;-62
2020/12/31 01:59:40;;;;;;;4.10;3.20;;;;;;;0.10;87.87;97944.44;5011401;28;20036;-62
2020/12/31 02:02:07;;;;;;;5.13;3.03;;;;;;;0.12;87.91;97934.41;4995835;28;20094;-62
2020/12/31 02:04:34;;;;;;;4.40;3.23;;;;;;;0.16;87.81;97938.63;4991998;28;20042;-62
2020/12/31 02:06:59;;;;;;;5.40;3.50;;;;;;;0.10;87.53;97936.88;4991070;28;20091;-62
2020/12/31 02:09:24;;;;;;;8.23;5.00;;;;;;;0.10;88.12;97941.06;4992144;28;20027;-62
2020/12/31 02:11:50;;;;;;;10.57;4.43;;;;;;;0.07;87.96;97939.38;5002783;28;20459;-62
2020/12/31 02:14:15;;;;;;;7.40;4.50;;;;;;;0.08;87.97;97940.22;5011586;28;20033;-62
2020/12/31 02:16:41;;;;;;;7.67;4.20;;;;;;;0.05;87.95;97937.66;5010868;28;20029;-62
2020/12/31 02:19:13;;;;;;;6.77;3.50;;;;;;;0.16;87.60;97938.63;5010748;28;20040;-62
2020/12/31 02:21:49;;;;;;;7.53;4.00;;;;;;;0.20;88.15;97940.34;5002146;28;20057;-62
2020/12/31 02:24:14;;;;;;;9.73;3.67;;;;;;;0.14;87.85;97942.78;4991828;28;20042;-63
2020/12/31 02:26:41;;;;;;;6.57;3.90;;;;;;;0.14;87.39;97940.28;4991211;28;20155;-62
2020/12/31 02:29:09;;;;;;;6.20;3.83;;;;;;;0.23;87.71;97938.72;4991969;28;20030;-62
2020/12/31 02:31:35;;;;;;;4.47;2.83;;;;;;;0.24;88.03;97935.38;4991012;28;20037;-62
2020/12/31 02:34:02;;;;;;;5.43;3.33;;;;;;;0.38;88.00;97933.00;4991644;28;20077;-62
2020/12/31 02:36:31;;;;;;;3.90;3.40;;;;;;;0.57;87.53;97934.84;4990949;28;20027;-62
2020/12/31 02:38:58;;;;;;;4.53;3.53;;;;;;;0.77;86.59;97929.94;4991662;28;20029;-62
2020/12/31 02:41:24;;;;;;;5.17;3.27;;;;;;;0.88;85.85;97939.31;4990953;28;20041;-62
2020/12/31 02:43:50;;;;;;;6.27;3.23;;;;;;;1.02;85.06;97938.59;4992474;28;20022;-62
2020/12/31 02:46:19;;;;;;;4.90;3.30;;;;;;;1.09;84.78;97932.72;4992050;28;20416;-62
2020/12/31 02:48:45;;;;;;;3.37;2.77;;;;;;;1.20;83.61;97936.16;5012017;28;20162;-62
2020/12/31 02:51:10;;;;;;;6.13;3.20;;;;;;;1.10;83.11;97926.84;5010733;28;20046;-62
2020/12/31 02:53:36;;;;;;;7.03;3.73;;;;;;;0.89;83.11;97928.38;5011474;28;20466;-62
2020/12/31 02:56:09;;;;;;;9.30;5.00;;;;;;;0.82;84.20;97925.78;5008368;28;20022;-62
2020/12/31 02:58:36;;;;;;;7.93;3.50;;;;;;;0.69;84.54;97927.38;4990607;28;20026;-62
2020/12/31 03:01:01;;;;;;;4.23;3.30;;;;;;;0.57;84.71;97928.94;4990346;28;20061;-62
2020/12/31 03:03:27;;;;;;;5.23;3.27;;;;;;;0.54;84.85;97924.72;4990720;28;20050;-62
2020/12/31 03:05:52;;;;;;;4.30;3.60;;;;;;;0.41;85.36;97926.28;4990875;28;20030;-62
2020/12/31 03:08:18;;;;;;;10.27;4.20;;;;;;;0.33;85.30;97932.09;5008826;28;20026;-62
2020/12/31 03:10:43;;;;;;;8.53;4.63;;;;;;;0.25;85.30;97932.03;5010486;28;20114;-62
2020/12/31 03:13:09;;;;;;;10.97;5.10;;;;;;;0.20;85.71;97922.72;5009063;28;20451;-62
2020/12/31 03:15:34;;;;;;;7.43;4.10;;;;;;;0.14;85.84;97922.63;4996118;28;20022;-62
2020/12/31 03:17:59;;;;;;;9.30;5.47;;;;;;;0.17;86.19;97930.25;5011596;28;20039;-62
2020/12/31 03:20:25;;;;;;;7.83;4.27;;;;;;;0.13;86.59;97936.09;5009666;28;20125;-62
2020/12/31 03:22:50;;;;;;;4.47;3.00;;;;;;;0.12;86.66;97922.66;4993334;28;20030;-62
2020/12/31 03:25:16;;;;;;;6.57;4.50;;;;;;;0.10;86.81;97919.25;4990776;28;20057;-62
2020/12/31 03:27:41;;;;;;;6.17;4.33;;;;;;;0.06;86.89;97914.16;4990743;28;20037;-62
2020/12/31 03:30:06;;;;;;;7.03;3.90;;;;;;;0.07;86.90;97900.75;4989962;28;20030;-62
2020/12/31 03:32:32;;;;;;;8.30;4.03;;;;;;;0.08;87.20;97894.88;4995827;28;20029;-62
2020/12/31 03:34:57;;;;;;;5.30;3.70;;;;;;;0.07;87.35;97883.94;5003591;28;20027;-62
2020/12/31 03:37:26;;;;;;;7.77;4.20;;;;;;;0.15;87.55;97882.34;5014342;28;20039;-62
2020/12/31 03:39:52;;;;;;;6.43;4.30;;;;;;;0.29;88.04;97885.00;5012567;28;20113;-62
2020/12/31 03:42:18;;;;;;;6.50;3.93;;;;;;;0.81;88.58;97887.09;5023171;28;20041;-62
2020/12/31 03:44:43;;;;;;;6.03;4.13;;;;;;;1.35;85.98;97886.63;5014051;28;20026;-62
2020/12/31 03:47:09;;;;;;;5.53;3.77;;;;;;;1.79;83.84;97885.94;5010434;28;20026;-62
2020/12/31 03:49:34;;;;;;;9.37;4.27;;;;;;;2.02;82.41;97880.97;5001042;28;20109;-62
2020/12/31 03:51:59;;;;;;;5.43;4.07;;;;;;;2.11;81.23;97881.00;5009278;28;20454;-62
2020/12/31 03:54:25;;;;;;;5.27;3.93;;;;;;;2.10;81.52;97875.09;5009300;28;20061;-62
2020/12/31 03:56:50;;;;;;;5.37;3.40;;;;;;;2.09;81.38;97883.50;5010087;28;20105;-62
2020/12/31 03:59:15;;;;;;;5.27;3.30;;;;;;;2.09;81.43;97882.66;5008983;28;20021;-62
2020/12/31 04:01:41;;;;;;;4.17;3.43;;;;;;;2.13;81.15;97879.31;5010976;28;20486;-62
2020/12/31 04:04:06;;;;;;;5.17;3.60;;;;;;;2.24;80.77;97875.97;5008996;28;20018;-62
2020/12/31 04:06:32;;;;;;;5.57;4.40;;;;;;;2.34;80.55;97883.56;5012677;28;20041;-62
2020/12/31 04:08:57;;;;;;;5.73;4.23;;;;;;;2.60;78.95;97872.63;4993944;28;20031;-61
2020/12/31 04:11:23;;;;;;;6.10;3.70;;;;;;;2.81;77.97;97866.72;4992200;28;20026;-62
2020/12/31 04:13:48;;;;;;;4.50;3.30;;;;;;;2.96;77.51;97865.84;5008026;28;20029;-62
2020/12/31 04:16:14;;;;;;;4.67;3.60;;;;;;;3.07;76.89;97866.66;5012264;28;20133;-62
2020/12/31 04:18:39;;;;;;;4.60;3.50;;;;;;;3.10;76.10;97864.13;5040767;28;20043;-62
2020/12/31 04:21:04;;;;;;;5.27;3.17;;;;;;;3.16;75.46;97867.50;5107942;28;20023;-61
2020/12/31 04:23:30;;;;;;;4.43;3.53;;;;;;;3.18;75.91;97867.50;5023392;27;20052;-61
2020/12/31 04:25:55;;;;;;;4.20;3.03;;;;;;;3.17;75.65;97863.28;5004384;28;20033;-62
2020/12/31 04:28:21;;;;;;;4.13;3.20;;;;;;;3.22;75.51;97866.66;5098630;28;20038;-62
2020/12/31 04:30:47;;;;;;;5.57;3.43;;;;;;;3.33;75.15;97866.63;4993608;28;20152;-62
2020/12/31 04:33:13;;;;;;;4.60;3.20;;;;;;;3.32;74.51;97870.00;4992135;28;20058;-62
2020/12/31 04:35:39;;;;;;;4.83;3.60;;;;;;;3.34;74.10;97874.22;5073893;28;20035;-62
2020/12/31 04:38:05;;;;;;;7.63;3.53;;;;;;;3.35;74.63;97865.78;5132228;27;20030;-62
2020/12/31 04:40:31;;;;;;;4.70;3.50;;;;;;;3.40;74.07;97865.75;5023116;28;20041;-62
2020/12/31 04:42:57;;;;;;;4.87;3.70;;;;;;;3.41;73.94;97859.84;5032361;28;20354;-62
2020/12/31 04:45:23;;;;;;;5.90;4.03;;;;;;;3.39;73.99;97856.47;5016064;28;20033;-61
2020/12/31 04:48:06;;;;;;;4.57;3.63;;;;;;;3.50;73.95;97855.59;5011882;28;20033;-62
2020/12/31 04:50:34;;;;;;;8.93;3.47;;;;;;;3.42;73.73;97856.47;5012363;28;20044;-62
2020/12/31 04:53:03;;;;;;;4.40;3.17;;;;;;;3.45;73.76;97857.28;5069183;28;20020;-62
2020/12/31 04:55:32;;;;;;;5.47;3.70;;;;;;;3.47;73.84;97860.69;4993911;28;20065;-62
2020/12/31 04:57:58;;;;;;;5.47;4.30;;;;;;;3.49;73.22;97863.19;4992096;28;20054;-63
2020/12/31 05:00:23;;;;;;;5.03;3.07;;;;;;;3.46;73.24;97863.19;4993737;28;20057;-62
2020/12/31 05:02:53;;;;;;;4.20;3.80;;;;;;;3.49;73.19;97874.16;4992375;28;20030;-62
2020/12/31 05:05:20;;;;;;;5.90;3.80;;;;;;;3.45;72.93;97880.09;5011443;28;20468;-62
2020/12/31 05:07:50;;;;;;;4.73;3.63;;;;;;;3.49;72.91;97871.63;5008744;28;20049;-62
2020/12/31 05:10:15;;;;;;;6.63;4.20;;;;;;;3.44;73.25;97875.84;5006646;28;20026;-62
2020/12/31 05:12:41;;;;;;;5.50;4.23;;;;;;;3.43;73.03;97866.59;4997021;28;20415;-62
2020/12/31 05:15:06;;;;;;;4.97;3.90;;;;;;;3.42;72.84;97876.72;4997759;28;20091;-62
2020/12/31 05:17:32;;;;;;;5.07;3.63;;;;;;;3.40;73.05;97869.13;4992115;28;20022;-62
2020/12/31 05:19:57;;;;;;;7.20;4.20;;;;;;;3.43;72.43;97873.34;4990847;28;20128;-63
2020/12/31 05:22:23;;;;;;;4.67;4.17;;;;;;;3.40;72.69;97876.72;4998830;28;20331;-62
2020/12/31 05:24:52;;;;;;;6.63;4.40;;;;;;;3.49;72.76;97881.75;5007844;28;20049;-62
2020/12/31 05:27:29;;;;;;;4.93;3.80;;;;;;;3.47;72.49;97880.94;5020735;28;20036;-62
2020/12/31 05:30:04;;;;;;;7.93;4.10;;;;;;;3.42;72.57;97880.09;4998390;28;20339;-62
2020/12/31 05:32:32;;;;;;;6.40;4.40;;;;;;;3.42;72.55;97880.09;5000357;28;20421;-62
2020/12/31 05:34:58;;;;;;;7.27;4.67;;;;;;;3.32;72.86;97886.03;4996047;28;20027;-62
2020/12/31 05:37:27;;;;;;;6.43;3.87;;;;;;;3.43;72.42;97893.63;4997623;28;20026;-62
2020/12/31 05:40:18;;;;;;;5.43;3.87;;;;;;;3.47;72.77;97891.06;4999338;28;20025;-62
2020/12/31 05:42:44;;;;;;;6.33;4.43;;;;;;;3.37;72.71;97894.47;5004168;28;20033;-62
2020/12/31 05:45:13;;;;;;;5.37;4.03;;;;;;;3.27;72.87;97895.31;5002753;28;20026;-61
2020/12/31 05:47:52;;;;;;;7.03;4.47;;;;;;;3.42;72.86;97895.31;5001501;28;20071;-61
2020/12/31 05:50:25;;;;;;;5.37;4.00;;;;;;;3.40;72.68;97903.75;5004038;28;20057;-61
2020/12/31 05:52:53;;;;;;;5.57;4.30;;;;;;;3.34;72.45;97901.25;5003005;28;20450;-61
2020/12/31 05:55:20;;;;;;;7.23;4.77;;;;;;;3.39;72.31;97902.94;4997197;28;20050;-62
2020/12/31 05:57:56;;;;;;;7.80;5.00;;;;;;;3.42;72.65;97907.13;4995328;28;20026;-62
2020/12/31 06:00:23;;;;;;;5.53;4.23;;;;;;;3.32;72.53;97908.84;4999160;28;20447;-62
2020/12/31 06:02:52;;;;;;;6.83;4.60;;;;;;;3.36;72.57;97904.59;4999673;28;20462;-61
2020/12/31 06:05:19;;;;;;;7.07;4.63;;;;;;;3.27;72.94;97915.59;4993008;28;20101;-62
2020/12/31 06:07:50;;;;;;;5.77;4.13;;;;;;;3.27;72.64;97912.25;4992613;28;20105;-62
2020/12/31 06:10:27;;;;;;;7.20;4.67;;;;;;;3.27;72.60;97912.25;5005376;28;20113;-62
2020/12/31 06:12:52;;;;;;;8.60;5.73;;;;;;;3.14;72.62;97904.63;4997542;28;20062;-62
2020/12/31 06:15:23;;;;;;;8.20;5.23;;;;;;;3.18;72.84;97910.56;5001476;28;20057;-62
2020/12/31 06:17:50;;;;;;;7.17;4.57;;;;;;;3.16;72.94;97909.72;4996484;28;20076;-63
2020/12/31 06:20:17;;;;;;;5.47;4.47;;;;;;;3.22;73.24;97913.06;5003096;28;20029;-62
2020/12/31 06:22:56;;;;;;;6.07;4.73;;;;;;;3.20;73.33;97907.19;4995975;28;20022;-62
2020/12/31 06:25:38;;;;;;;8.97;4.63;;;;;;;3.18;73.03;97915.63;5002589;28;20021;-62
2020/12/31 06:28:06;;;;;;;7.10;4.53;;;;;;;3.11;73.00;97911.41;5010382;28;20025;-62
2020/12/31 06:30:33;;;;;;;6.47;4.60;;;;;;;3.14;73.04;97912.22;5010498;28;20357;-62
2020/12/31 06:33:21;;;;;;;5.50;4.53;;;;;;;3.08;73.35;97921.53;5005815;28;20489;-62
2020/12/31 06:35:49;;;;;;;5.80;4.70;;;;;;;3.07;73.28;97914.78;4992468;28;20034;-62
2020/12/31 06:38:26;;;;;;;9.80;4.80;;;;;;;3.05;73.07;97914.81;4991157;28;20022;-62
2020/12/31 06:40:51;;;;;;;6.17;4.17;;;;;;;3.06;73.21;97923.22;5002935;28;20520;-62
2020/12/31 06:43:16;;;;;;;6.23;5.00;;;;;;;2.99;73.36;97924.91;5024135;28;20105;-62
2020/12/31 06:45:44;;;;;;;7.97;4.73;;;;;;;3.03;73.50;97925.75;4992535;28;20417;-62
2020/12/31 06:48:25;;;;;;;6.17;4.93;;;;;;;3.05;72.83;97924.94;4991465;28;20026;-62
2020/12/31 06:51:00;;;;;;;7.47;5.50;;;;;;;3.01;73.35;97930.81;5006550;28;20033;-62
2020/12/31 06:53:29;;;;;;;6.72;5.03;;;;;;;3.02;73.27;97926.59;5010476;28;20072;-62
2020/12/31 06:55:55;;;;;;;6.87;5.30;;;;;;;2.94;73.44;97929.13;4992421;28;20054;-62
2020/12/31 06:58:21;;;;;;;5.77;3.87;;;;;;;2.92;72.76;97925.78;4991385;28;20402;-62
2020/12/31 07:00:48;;;;;;;4.60;3.70;;;;;;;2.90;73.00;97927.44;4996293;28;20450;-62
2020/12/31 07:03:14;;;;;;;7.60;5.10;;;;;;;2.80;73.72;97935.06;5000991;28;20030;-62
2020/12/31 07:05:39;;;;;;;5.83;4.40;;;;;;;2.68;73.94;97929.13;5000449;28;20022;-62
2020/12/31 07:08:04;;;;;;;5.80;4.80;;;;;;;2.64;73.78;97932.50;5009712;28;20053;-62
2020/12/31 07:10:46;;;;;;;5.83;5.20;;;;;;;2.61;74.43;97935.03;4996127;28;20041;-62
2020/12/31 07:13:30;;;;;;;6.90;5.60;;;;;;;2.51;75.06;97933.31;5009921;28;20067;-62
2020/12/31 07:15:56;;;;;;;6.37;5.07;;;;;;;2.34;75.21;97932.44;4994088;28;20026;-62
2020/12/31 07:18:23;;;;;;;5.40;4.87;;;;;;;2.38;75.23;97938.38;5010648;28;20057;-62
2020/12/31 07:20:49;;;;;;;8.03;5.27;;;;;;;2.36;75.62;97935.00;5008120;28;20022;-62
2020/12/31 07:23:15;;;;;;;9.07;5.63;;;;;;;2.33;75.70;97935.84;4998784;28;20053;-62
2020/12/31 07:25:43;;;;;;;11.03;7.40;;;;;;;2.30;75.82;97936.66;5009462;28;20111;-62
2020/12/31 07:28:18;;;;;;;9.60;6.13;;;;;;;2.41;76.26;97933.31;5002289;28;20023;-62
2020/12/31 07:30:51;;;;;;;8.55;5.88;;;;;;;2.42;75.77;97932.50;4999672;28;20022;-62
2020/12/31 07:33:34;;;;;;;5.70;4.43;;;;;;;2.49;74.51;97929.97;4999182;28;20042;-62
2020/12/31 07:36:11;;;;;;;3.70;3.30;;;;;;;2.76;74.40;97924.91;5004766;28;20101;-62
2020/12/31 07:38:37;;;;;;;5.33;4.30;;;;;;;2.87;72.81;97922.41;5003686;28;20030;-62
2020/12/31 07:41:02;;;;;;;5.33;3.50;;;;;;;2.98;72.61;97928.28;5005269;28;20037;-62
2020/12/31 07:43:29;;;;;;;7.87;4.50;;;;;;;3.11;72.04;97924.91;5004116;28;20441;-61
2020/12/31 07:45:56;;;;;;;5.23;3.77;;;;;;;3.16;71.68;97923.22;5007235;28;20026;-62
2020/12/31 07:48:23;;;;;;;7.47;4.03;;;;;;;3.32;71.49;97920.66;5008213;28;20033;-62
2020/12/31 07:50:55;;;;;;;5.90;3.40;;;;;;;3.42;70.61;97919.78;5004939;28;20053;-63
2020/12/31 07:53:21;;;;;;;4.00;3.20;;;;;;;3.43;70.05;97919.81;5008085;28;20451;-62
2020/12/31 07:55:51;;;;;;;4.90;3.53;;;;;;;3.41;70.46;97920.63;5008965;28;20060;-62
2020/12/31 07:58:32;;;;;;;3.93;3.20;;;;;;;3.41;70.46;97923.16;5006355;28;20163;-62
2020/12/31 08:01:01;;;;;;;3.67;2.87;;;;;;;3.35;70.61;97924.03;5002706;28;20022;-63
2020/12/31 08:03:27;;;;;;;4.33;2.80;;;;;;;3.36;70.74;97924.88;5005970;28;20034;-62
2020/12/31 08:06:01;;;;;;;4.53;3.27;;;;;;;3.48;70.46;97922.31;5010058;28;20367;-62
2020/12/31 08:08:27;;;;;;;3.40;2.80;;;;;;;3.53;69.91;97916.38;5008037;28;20030;-62
2020/12/31 08:10:53;;;;;;;3.07;2.67;;;;;;;3.49;69.60;97914.69;5007801;28;20022;-62
2020/12/31 08:13:19;;;;;;;3.67;2.90;;;;;;;3.66;69.41;97917.19;5001259;28;20393;-62
2020/12/31 08:15:54;;;;;;;3.53;2.47;;;;;;;3.85;68.51;97921.34;5006543;28;20032;-62
2020/12/31 08:18:23;;;;;;;5.10;3.38;;;;;;;3.88;68.27;97915.41;5006301;28;20033;-62
2020/12/31 08:20:51;;;;;;;2.60;2.40;;;;;;;3.91;68.76;97913.72;5007057;28;20018;-62
2020/12/31 08:23:18;;;;;;;3.77;2.93;;;;;;;4.02;67.51;97916.22;5007552;28;20025;-62
2020/12/31 08:25:46;;;;;;;3.30;2.53;;;;;;;4.00;67.71;97910.28;5011022;28;20040;-62
2020/12/31 08:28:17;;;;;;;3.27;2.67;;;;;;;4.10;67.07;97925.47;5009978;28;20029;-62
2020/12/31 08:30:42;;;;;;;4.70;2.70;;;;;;;4.05;67.72;97913.66;5011025;28;20140;-62
2020/12/31 08:33:11;;;;;;;3.37;2.90;;;;;;;4.16;67.75;97921.22;5006847;28;20188;-62
2020/12/31 08:35:46;;;;;;;4.43;2.73;;;;;;;4.22;67.03;97922.03;5007383;28;20403;-62
2020/12/31 08:38:22;;;;;;;5.17;2.70;;;;;;;4.23;67.33;97923.72;5007392;28;20018;-62
2020/12/31 08:40:52;;;;;;;;;;;;;;;4.26;66.91;97927.91;5010061;28;20384;-62
2020/12/31 08:43:17;;;;;;;7.27;3.10;;;;;;;4.29;66.67;97926.19;5006628;28;19914;-62
2020/12/31 08:45:43;;;;;;;5.93;3.07;;;;;;;4.36;66.91;97927.88;5004524;28;20029;-62
2020/12/31 08:48:17;;;;;;;4.90;2.60;;;;;;;4.27;67.29;97922.84;5004461;28;20060;-62
2020/12/31 08:51:04;;;;;;;3.67;2.77;;;;;;;4.21;66.81;97922.00;5007890;28;20100;-63
2020/12/31 08:53:30;;;;;;;2.73;2.53;;;;;;;4.31;66.73;97924.50;5005215;28;20044;-63
2020/12/31 08:55:56;;;;;;;4.80;2.50;;;;;;;4.32;66.13;97922.81;5003284;28;20460;-63
2020/12/31 08:58:30;;;;;;;2.97;2.13;;;;;;;4.62;65.62;97922.63;5005384;28;20114;-63
2020/12/31 09:00:57;;;;;;;2.27;1.93;;;;;;;4.72;65.02;97920.84;5005974;28;20029;-63
2020/12/31 09:03:24;;;;;;;5.17;2.50;;;;;;;4.64;65.59;97933.59;5007113;28;20187;-63
2020/12/31 09:05:57;;;;;;;4.00;2.20;;;;;;;4.98;65.09;97916.41;5007372;28;20033;-63
2020/12/31 09:08:23;;;;;;;3.00;2.00;;;;;;;4.84;64.26;97923.28;5006120;28;20043;-63
2020/12/31 09:10:58;;;;;;;2.63;2.23;;;;;;;5.06;64.04;97922.25;5006573;28;20422;-63
2020/12/31 09:13:23;;;;;;;2.63;2.00;;;;;;;5.11;63.90;97919.69;5007576;28;20029;-63
2020/12/31 09:16:06;;;;;;;3.53;2.27;;;;;;;5.18;64.23;97916.25;5008691;28;20049;-63
2020/12/31 09:18:32;;;;;;;2.77;2.10;;;;;;;5.26;63.41;97917.84;5008583;28;20045;-63
2020/12/31 09:20:57;;;;;;;2.03;1.87;;;;;;;5.14;63.12;97920.50;5006236;28;20026;-62
2020/12/31 09:23:23;;;;;;;2.57;2.00;;;;;;;5.23;63.28;97917.03;5006300;28;20026;-64
2020/12/31 09:25:50;;;;;;;1.97;1.60;;;;;;;5.28;62.78;97915.28;5011410;28;20016;-62
2020/12/31 09:28:16;;;;;;;1.83;1.63;;;;;;;5.37;62.12;97902.50;5004535;28;20459;-63
2020/12/31 09:30:42;;;;;;;2.03;1.50;;;;;;;5.36;62.76;97908.44;5007138;28;20362;-63
2020/12/31 09:33:08;;;;;;;4.40;1.97;;;;;;;5.34;62.74;97908.47;5001917;28;20054;-63
2020/12/31 09:35:33;;;;;;;1.70;1.57;;;;;;;5.62;60.90;97898.84;5007001;28;20113;-63
2020/12/31 09:37:59;;;;;;;1.47;1.37;;;;;;;5.67;60.62;97902.19;5008260;28;20109;-63
2020/12/31 09:40:26;;;;;;;1.80;1.70;;;;;;;5.68;61.24;97903.88;5007776;28;20026;-63
2020/12/31 09:42:52;;;;;;;2.17;1.83;;;;;;;5.80;60.53;97906.25;5005180;28;20041;-63
2020/12/31 09:45:18;;;;;;;1.77;1.57;;;;;;;5.84;60.77;97907.06;5004242;28;20462;-63
2020/12/31 09:47:44;;;;;;;1.93;1.70;;;;;;;6.00;59.81;97907.75;5005172;28;20080;-65
2020/12/31 09:50:10;;;;;;;1.30;1.30;;;;;;;6.02;59.20;97909.44;5006419;28;20030;-63
2020/12/31 09:52:39;;;;;;;2.37;1.40;;;;;;;6.22;59.07;97911.69;5004254;28;20075;-64
2020/12/31 09:55:07;;;;;;;2.07;1.23;;;;;;;6.26;59.43;97904.00;5002646;28;20030;-63
2020/12/31 09:57:34;;;;;;;2.70;1.40;;;;;;;6.34;58.98;97907.28;5004123;28;20141;-63
2020/12/31 10:00:00;;;;;;;1.67;1.07;;;;;;;6.24;57.74;97907.41;5006558;28;20021;-64
2020/12/31 10:02:26;;;;;;;1.57;1.10;;;;;;;6.27;57.63;97903.16;5005471;28;20327;-64
2020/12/31 10:04:51;;;;;;;2.67;1.23;;;;;;;6.39;57.50;97900.44;5005014;28;20032;-64
2020/12/31 10:07:17;;;;;;;3.17;1.20;;;;;;;6.45;56.94;97891.84;5004614;28;20029;-64
2020/12/31 10:09:43;;;;;;;0.73;0.73;;;;;;;6.48;56.46;97891.81;5006866;28;20090;-63
2020/12/31 10:12:14;;;;;;;3.37;1.30;;;;;;;6.59;56.87;97891.66;5005749;28;20026;-64
2020/12/31 10:14:40;;;;;;;1.37;1.20;;;;;;;6.63;56.19;97889.03;5006278;28;20089;-63
2020/12/31 10:17:07;;;;;;;1.23;1.10;;;;;;;6.80;56.25;97894.69;5006428;28;20025;-64
2020/12/31 10:19:32;;;;;;;1.70;1.57;;;;;;;7.33;55.63;97883.63;5006746;28;20029;-64
2020/12/31 10:21:57;;;;;;;4.97;2.30;;;;;;;7.64;55.18;97891.50;5006909;28;20041;-64
2020/12/31 10:24:23;;;;;;;1.23;1.10;;;;;;;7.49;52.86;97881.59;5006407;28;20537;-64
2020/12/31 10:26:48;;;;;;;1.53;1.43;;;;;;;7.25;54.01;97882.91;5009710;28;20029;-63
2020/12/31 10:29:15;;;;;;;2.03;1.20;;;;;;;7.36;54.39;97880.16;5005318;28;20030;-64
2020/12/31 10:31:42;;;;;;;2.63;1.10;;;;;;;7.35;54.79;97881.84;5005980;28;20030;-63
2020/12/31 10:34:10;;;;;;;1.70;1.53;;;;;;;7.31;54.91;97877.69;5004989;28;20046;-64
2020/12/31 10:36:37;;;;;;;2.30;1.70;;;;;;;7.23;55.25;97871.03;5008621;28;20037;-64
2020/12/31 10:39:04;;;;;;;2.70;1.73;;;;;;;7.51;54.90;97869.66;5007350;28;20061;-64
2020/12/31 10:41:30;;;;;;;1.50;1.37;;;;;;;7.55;54.69;97860.25;5007934;28;20026;-64
2020/12/31 10:43:59;;;;;;;1.37;1.27;;;;;;;7.37;53.57;97858.06;5005554;28;20025;-64
2020/12/31 10:46:27;;;;;;;1.30;1.10;;;;;;;7.29;53.22;97859.03;5001882;28;20030;-63
2020/12/31 10:48:53;;;;;;;3.40;1.30;;;;;;;7.53;52.43;97859.44;5004068;28;20033;-63
2020/12/31 10:51:19;;;;;;;1.93;1.30;;;;;;;7.56;53.45;97849.16;5003623;28;20048;-63
2020/12/31 10:53:45;;;;;;;4.47;3.77;;;;;;;7.67;52.38;97840.44;5001173;28;20038;-63
2020/12/31 10:56:11;;;;;;;1.83;1.73;;;;;;;7.97;52.03;97838.13;5007574;28;20061;-63
2020/12/31 10:58:37;;;;;;;2.73;2.00;;;;;;;8.20;50.83;97834.19;5004217;28;20038;-64
2020/12/31 11:01:04;;;;;;;2.90;2.10;;;;;;;8.47;49.74;97834.47;5001646;28;20083;-64
2020/12/31 11:03:30;;;;;;;3.87;1.90;;;;;;;8.69;49.50;97821.16;4999244;28;20018;-62
2020/12/31 11:05:56;;;;;;;2.47;1.80;;;;;;;8.70;49.45;97821.97;5002873;28;20031;-63
2020/12/31 11:08:21;;;;;;;3.70;2.33;;;;;;;8.44;50.47;97827.72;4991832;28;20034;-63
2020/12/31 11:10:48;;;;;;;2.40;2.20;;;;;;;8.39;50.92;97823.59;4989132;28;20495;-63
2020/12/31 11:13:13;;;;;;;2.80;1.53;;;;;;;8.17;50.08;97815.56;4989994;28;20030;-63
2020/12/31 11:15:40;;;;;;;2.10;1.70;;;;;;;8.21;50.82;97815.44;4989404;28;20053;-63
2020/12/31 11:18:05;;;;;;;2.47;1.67;;;;;;;8.00;51.01;97813.38;5005744;28;20057;-63
2020/12/31 11:20:31;;;;;;;1.83;1.73;;;;;;;7.97;50.35;97805.81;5013117;28;20469;-63
2020/12/31 11:22:56;;;;;;;1.93;1.73;;;;;;;7.91;50.42;97803.38;5012882;28;20038;-63
2020/12/31 11:25:21;;;;;;;1.70;1.50;;;;;;;8.06;50.01;97794.53;5014899;28;20022;-63
2020/12/31 11:27:47;;;;;;;3.30;1.70;;;;;;;8.04;50.10;97791.16;5076858;28;20041;-63
2020/12/31 11:30:12;;;;;;;3.40;3.10;;;;;;;8.10;49.86;97794.44;4994521;28;20109;-63
2020/12/31 11:32:38;;;;;;;2.00;1.30;;;;;;;8.05;49.44;97782.66;4993697;28;20054;-63
2020/12/31 11:35:04;;;;;;;4.47;1.40;;;;;;;7.95;50.16;97774.34;4995032;28;20030;-63
2020/12/31 11:37:32;;;;;;;1.43;1.30;;;;;;;8.12;49.44;97782.47;4996834;28;20030;-63
2020/12/31 11:39:58;;;;;;;1.10;1.00;;;;;;;8.13;49.61;97781.59;4994389;28;20335;-64
2020/12/31 11:42:24;;;;;;;1.67;1.43;;;;;;;7.74;49.88;97780.75;5027611;28;20046;-64